If you wish to contribute or participate in the discussions about articles you are invited to join SKYbrary as a registered user

 Actions

Oral Ak Zhol Airport

From SKYbrary Wiki

UARR
Airport
ICAO: UARR – IATA: URA
Summary
Name Oral Ak Zhol Airport
Region Asia and Pacific
Territory Kazakhstan KZ.gif
Location Uralsk, West Kazakhstan
Serving Uralsk
Elevation 38.1 m
125 ft
125 ft38.1 m
Coordinates 51° 9' 3.00" N, 51° 32' 35.00" E
Runways
Designator Length Width Surface ROPS
4/22 2400 m7,874.016 ft
42 m137.795 ft
CON yes/yes


METAR
Observation UARR 172200Z 32003MPS 9000 -SHRA SCT050CB OVC100 14/10 Q1004 R22/CLRD70 NOSIG RMK QFE749/0999
Station Uralsk
Date/Time 17 September 2019 22:00:00
Wind direction 320°
Wind speed kts
Lowest cloud amount scattered clouds
Temperature 14°C
Dew point 10°C
Humidity 76%
QNH 1004 hPa
Weather condition n/a

Description

Oral Ak Zhol Airport (formerly known as Uralsk Ak Zhol and Podstepnyy during the Soviet era) is an airport in Kazakhstan located 12 km southeast of Oral (Uralsk). It is a small airport servicing medium-sized airliners.